Time,TemperatureF,DewpointF,PressureIn,WindDirection,WindDirectionDegrees,WindSpeedMPH,WindSpeedGustMPH,Humidity,HourlyPrecipIn,Conditions,Clouds,dailyrainin,SoftwareType,DateUTC
2013-06-05 00:05:00,46.1,44.0,30.09,WSW,256,0.0,0.0,91,0.00,,,0.00,weatherlink.com 1.10,2013-06-05 04:05:00,
2013-06-05 00:20:00,45.3,43.0,30.09,WSW,256,0.0,0.0,92,0.00,,,0.00,weatherlink.com 1.10,2013-06-05 04:20:00,
2013-06-05 00:35:00,44.7,43.0,30.09,WSW,256,0.0,0.0,93,0.00,,,0.00,weatherlink.com 1.10,2013-06-05 04:35:00,
2013-06-05 00:51:00,44.4,43.0,30.09,WSW,256,0.0,0.0,95,0.00,,,0.00,weatherlink.com 1.10,2013-06-05 04:51:00,
2013-06-05 01:06:00,44.5,43.0,30.10,WSW,256,0.0,1.0,95,0.00,,,0.00,weatherlink.com 1.10,2013-06-05 05:06:00,
2013-06-05 01:21:00,44.6,43.0,30.10,WSW,256,0.0,1.0,95,0.00,,,0.00,weatherlink.com 1.10,2013-06-05 05:21:00,
2013-06-05 01:36:00,44.4,43.0,30.10,WSW,256,0.0,0.0,95,0.00,,,0.00,weatherlink.com 1.10,2013-06-05 05:36:00,
2013-06-05 01:51:00,43.7,42.0,30.10,WSW,256,0.0,0.0,95,0.00,,,0.00,weatherlink.com 1.10,2013-06-05 05:51:00,
2013-06-05 02:06:00,43.4,42.0,30.10,WSW,256,0.0,0.0,96,0.00,,,0.00,weatherlink.com 1.10,2013-06-05 06:06:00,
2013-06-05 02:21:00,43.2,42.0,30.10,WSW,256,0.0,0.0,96,0.00,,,0.00,weatherlink.com 1.10,2013-06-05 06:21:00,
2013-06-05 02:36:00,43.4,42.0,30.10,WSW,256,0.0,0.0,96,0.00,,,0.00,weatherlink.com 1.10,2013-06-05 06:36:00,
2013-06-05 02:51:00,43.7,43.0,30.10,WSW,256,0.0,0.0,97,0.00,,,0.00,weatherlink.com 1.10,2013-06-05 06:51:00,
2013-06-05 03:21:00,44.1,43.0,30.10,WSW,256,0.0,0.0,97,0.00,,,0.00,weatherlink.com 1.10,2013-06-05 07:21:00,
2013-06-05 04:06:00,44.0,43.0,30.12,WSW,256,0.0,0.0,96,0.00,,,0.00,weatherlink.com 1.10,2013-06-05 08:06:00,
2013-06-05 04:36:00,42.8,42.0,30.12,WSW,256,0.0,0.0,96,0.00,,,0.00,weatherlink.com 1.10,2013-06-05 08:36:00,
2013-06-05 04:51:00,43.1,42.0,30.13,WSW,256,0.0,0.0,97,0.00,,,0.00,weatherlink.com 1.10,2013-06-05 08:51:00,
2013-06-05 05:06:00,43.3,43.0,30.13,WSW,256,0.0,0.0,97,0.00,,,0.00,weatherlink.com 1.10,2013-06-05 09:06:00,
2013-06-05 05:21:00,43.3,43.0,30.14,WSW,256,0.0,0.0,97,0.00,,,0.00,weatherlink.com 1.10,2013-06-05 09:21:00,
2013-06-05 05:36:00,43.3,43.0,30.13,WSW,256,0.0,0.0,97,0.00,,,0.00,weatherlink.com 1.10,2013-06-05 09:36:00,
2013-06-05 05:51:00,43.7,43.0,30.14,WSW,256,0.0,0.0,97,0.00,,,0.00,weatherlink.com 1.10,2013-06-05 09:51:00,
2013-06-05 06:06:00,44.4,44.0,30.14,WSW,256,0.0,0.0,97,0.00,,,0.00,weatherlink.com 1.10,2013-06-05 10:06:00,
2013-06-05 06:21:00,45.2,44.0,30.14,WSW,256,0.0,0.0,97,0.00,,,0.00,weatherlink.com 1.10,2013-06-05 10:21:00,
2013-06-05 06:36:00,46.0,45.0,30.15,SW,222,0.0,1.0,97,0.00,,,0.00,weatherlink.com 1.10,2013-06-05 10:36:00,
2013-06-05 06:51:00,48.7,48.0,30.16,SW,222,0.0,1.0,98,0.00,,,0.00,weatherlink.com 1.10,2013-06-05 10:51:00,
2013-06-05 07:06:00,53.3,51.0,30.16,SW,223,0.0,0.0,92,0.00,,,0.00,weatherlink.com 1.10,2013-06-05 11:06:00,
2013-06-05 07:21:00,56.1,49.0,30.16,WNW,283,2.0,4.0,76,0.00,,,0.00,weatherlink.com 1.10,2013-06-05 11:21:00,
2013-06-05 07:41:00,58.0,47.0,30.16,WSW,258,2.0,4.0,67,0.00,,,0.00,weatherlink.com 1.10,2013-06-05 11:41:00,
2013-06-05 07:56:00,59.1,48.0,30.16,West,264,0.0,3.0,67,0.00,,,0.00,weatherlink.com 1.10,2013-06-05 11:56:00,
2013-06-05 08:11:00,60.4,48.0,30.16,ESE,115,1.0,3.0,65,0.00,,,0.00,weatherlink.com 1.10,2013-06-05 12:11:00,
2013-06-05 08:26:00,60.8,47.0,30.17,North,11,2.0,4.0,60,0.00,,,0.00,weatherlink.com 1.10,2013-06-05 12:26:00,
2013-06-05 08:41:00,60.9,46.0,30.17,West,280,1.0,5.0,59,0.00,,,0.00,weatherlink.com 1.10,2013-06-05 12:41:00,
2013-06-05 09:26:00,63.0,48.0,30.17,NW,324,2.0,6.0,58,0.00,,,0.00,weatherlink.com 1.10,2013-06-05 13:26:00,
2013-06-05 09:41:00,63.3,46.0,30.17,NNE,26,2.0,6.0,53,0.00,,,0.00,weatherlink.com 1.10,2013-06-05 13:41:00,
2013-06-05 09:56:00,63.3,49.0,30.16,North,360,1.0,5.0,59,0.00,,,0.00,weatherlink.com 1.10,2013-06-05 13:56:00,
2013-06-05 10:11:00,64.3,49.0,30.16,SSE,160,0.0,5.0,58,0.00,,,0.00,weatherlink.com 1.10,2013-06-05 14:11:00,
2013-06-05 10:26:00,65.5,49.0,30.16,ESE,114,2.0,5.0,55,0.00,,,0.00,weatherlink.com 1.10,2013-06-05 14:26:00,
2013-06-05 10:41:00,65.3,45.0,30.15,NNW,345,1.0,7.0,49,0.00,,,0.00,weatherlink.com 1.10,2013-06-05 14:41:00,
2013-06-05 10:56:00,66.2,46.0,30.15,North,355,3.0,11.0,48,0.00,,,0.00,weatherlink.com 1.10,2013-06-05 14:56:00,
2013-06-05 11:11:00,66.3,45.0,30.15,West,269,0.0,10.0,47,0.00,,,0.00,weatherlink.com 1.10,2013-06-05 15:11:00,
2013-06-05 11:26:00,66.6,45.0,30.15,WSW,248,1.0,8.0,46,0.00,,,0.00,weatherlink.com 1.10,2013-06-05 15:26:00,
2013-06-05 11:41:00,67.7,45.0,30.15,SW,215,1.0,7.0,45,0.00,,,0.00,weatherlink.com 1.10,2013-06-05 15:41:00,
2013-06-05 11:56:00,67.5,44.0,30.14,West,274,2.0,9.0,43,0.00,,,0.00,weatherlink.com 1.10,2013-06-05 15:56:00,
2013-06-05 12:11:00,67.7,44.0,30.14,NNW,338,3.0,9.0,42,0.00,,,0.00,weatherlink.com 1.10,2013-06-05 16:11:00,
2013-06-05 12:26:00,67.9,43.0,30.14,SSE,149,1.0,6.0,41,0.00,,,0.00,weatherlink.com 1.10,2013-06-05 16:26:00,
2013-06-05 12:41:00,67.8,45.0,30.14,SW,236,5.0,7.0,44,0.00,,,0.00,weatherlink.com 1.10,2013-06-05 16:41:00,
2013-06-05 12:56:00,69.0,45.0,30.14,SSW,204,3.0,9.0,43,0.00,,,0.00,weatherlink.com 1.10,2013-06-05 16:56:00,
2013-06-05 13:11:00,68.2,47.0,30.13,NE,37,0.0,4.0,47,0.00,,,0.00,weatherlink.com 1.10,2013-06-05 17:11:00,
2013-06-05 13:26:00,67.6,44.0,30.13,WSW,257,3.0,8.0,43,0.00,,,0.00,weatherlink.com 1.10,2013-06-05 17:26:00,
2013-06-05 13:41:00,68.6,44.0,30.12,WSW,246,0.0,9.0,41,0.00,,,0.00,weatherlink.com 1.10,2013-06-05 17:41:00,
2013-06-05 13:56:00,69.8,44.0,30.12,WNW,293,3.0,10.0,39,0.00,,,0.00,weatherlink.com 1.10,2013-06-05 17:56:00,
2013-06-05 14:11:00,69.8,42.0,30.12,NNE,23,2.0,8.0,36,0.00,,,0.00,weatherlink.com 1.10,2013-06-05 18:11:00,
2013-06-05 14:27:00,70.6,44.0,30.11,WNW,294,6.0,6.0,38,0.00,,,0.00,weatherlink.com 1.10,2013-06-05 18:27:00,
2013-06-05 14:42:00,70.3,45.0,30.11,SSW,204,1.0,6.0,41,0.00,,,0.00,weatherlink.com 1.10,2013-06-05 18:42:00,
2013-06-05 14:57:00,69.4,42.0,30.10,West,280,2.0,6.0,37,0.00,,,0.00,weatherlink.com 1.10,2013-06-05 18:57:00,
2013-06-05 15:12:00,70.9,47.0,30.10,SSW,210,2.0,7.0,42,0.00,,,0.00,weatherlink.com 1.10,2013-06-05 19:12:00,
2013-06-05 15:27:00,70.1,45.0,30.09,NNW,345,0.0,3.0,41,0.00,,,0.00,weatherlink.com 1.10,2013-06-05 19:27:00,
2013-06-05 15:42:00,70.2,47.0,30.09,East,81,1.0,3.0,44,0.00,,,0.00,weatherlink.com 1.10,2013-06-05 19:42:00,
2013-06-05 15:57:00,70.2,45.0,30.09,SW,236,2.0,3.0,40,0.00,,,0.00,weatherlink.com 1.10,2013-06-05 19:57:00,
2013-06-05 16:12:00,70.5,47.0,30.08,West,262,0.0,4.0,44,0.00,,,0.00,weatherlink.com 1.10,2013-06-05 20:12:00,
2013-06-05 16:27:00,71.1,46.0,30.08,NNW,333,0.0,2.0,41,0.00,,,0.00,weatherlink.com 1.10,2013-06-05 20:27:00,
2013-06-05 16:42:00,70.6,46.0,30.08,WSW,242,1.0,2.0,42,0.00,,,0.00,weatherlink.com 1.10,2013-06-05 20:42:00,
2013-06-05 16:57:00,70.2,49.0,30.07,WSW,257,1.0,3.0,47,0.00,,,0.00,weatherlink.com 1.10,2013-06-05 20:57:00,
2013-06-05 17:12:00,70.0,49.0,30.07,ENE,67,0.0,6.0,47,0.00,,,0.00,weatherlink.com 1.10,2013-06-05 21:12:00,
2013-06-05 17:27:00,70.6,48.0,30.07,WNW,283,0.0,3.0,44,0.00,,,0.00,weatherlink.com 1.10,2013-06-05 21:27:00,
2013-06-05 17:42:00,71.2,47.0,30.07,South,190,0.0,3.0,42,0.00,,,0.00,weatherlink.com 1.10,2013-06-05 21:42:00,
2013-06-05 17:57:00,71.0,49.0,30.07,NW,304,1.0,3.0,45,0.00,,,0.00,weatherlink.com 1.10,2013-06-05 21:57:00,
2013-06-05 18:12:00,71.6,50.0,30.07,WNW,299,1.0,2.0,47,0.00,,,0.00,weatherlink.com 1.10,2013-06-05 22:12:00,
2013-06-05 18:27:00,71.0,48.0,30.08,SSW,200,1.0,2.0,44,0.00,,,0.00,weatherlink.com 1.10,2013-06-05 22:27:00,
2013-06-05 18:42:00,70.6,52.0,30.08,South,169,0.0,2.0,53,0.00,,,0.00,weatherlink.com 1.10,2013-06-05 22:42:00,
2013-06-05 18:57:00,69.0,49.0,30.09,South,183,1.0,2.0,49,0.00,,,0.00,weatherlink.com 1.10,2013-06-05 22:57:00,
2013-06-05 19:12:00,66.8,51.0,30.09,South,177,0.0,0.0,58,0.00,,,0.00,weatherlink.com 1.10,2013-06-05 23:12:00,
2013-06-05 19:27:00,66.1,52.0,30.09,South,177,0.0,0.0,61,0.00,,,0.00,weatherlink.com 1.10,2013-06-05 23:27:00,
2013-06-05 19:42:00,65.3,50.0,30.09,East,97,0.0,2.0,59,0.00,,,0.00,weatherlink.com 1.10,2013-06-05 23:42:00,
2013-06-05 19:57:00,62.8,52.0,30.09,East,98,0.0,0.0,67,0.00,,,0.00,weatherlink.com 1.10,2013-06-05 23:57:00,
2013-06-05 20:12:00,60.5,51.0,30.09,East,97,0.0,0.0,70,0.00,,,0.00,weatherlink.com 1.10,2013-06-06 00:12:00,
2013-06-05 20:27:00,59.0,51.0,30.08,East,98,0.0,0.0,74,0.00,,,0.00,weatherlink.com 1.10,2013-06-06 00:27:00,
2013-06-05 20:42:00,57.8,50.0,30.09,WSW,239,0.0,0.0,76,0.00,,,0.00,weatherlink.com 1.10,2013-06-06 00:42:00,
2013-06-05 20:57:00,56.3,50.0,30.10,WSW,238,0.0,0.0,80,0.00,,,0.00,weatherlink.com 1.10,2013-06-06 00:57:00,
2013-06-05 21:12:00,55.7,50.0,30.10,SW,218,0.0,0.0,81,0.00,,,0.00,weatherlink.com 1.10,2013-06-06 01:12:00,
2013-06-05 21:27:00,54.7,50.0,30.11,SW,219,0.0,0.0,83,0.00,,,0.00,weatherlink.com 1.10,2013-06-06 01:27:00,
2013-06-05 21:42:00,53.9,49.0,30.11,SW,219,0.0,0.0,84,0.00,,,0.00,weatherlink.com 1.10,2013-06-06 01:42:00,
2013-06-05 21:57:00,53.1,49.0,30.12,SW,220,0.0,0.0,87,0.00,,,0.00,weatherlink.com 1.10,2013-06-06 01:57:00,
2013-06-05 22:12:00,53.8,50.0,30.12,SSE,163,0.0,2.0,87,0.00,,,0.00,weatherlink.com 1.10,2013-06-06 02:12:00,
2013-06-05 22:27:00,58.4,50.0,30.12,SSW,207,1.0,7.0,74,0.00,,,0.00,weatherlink.com 1.10,2013-06-06 02:27:00,
2013-06-05 22:42:00,59.2,50.0,30.12,SW,228,4.0,4.0,72,0.00,,,0.00,weatherlink.com 1.10,2013-06-06 02:42:00,
2013-06-05 22:57:00,59.6,50.0,30.13,NNE,26,1.0,6.0,70,0.00,,,0.00,weatherlink.com 1.10,2013-06-06 02:57:00,
2013-06-05 23:12:00,59.3,50.0,30.13,WSW,256,1.0,5.0,71,0.00,,,0.00,weatherlink.com 1.10,2013-06-06 03:12:00,
2013-06-05 23:27:00,58.8,49.0,30.13,NNW,340,1.0,7.0,71,0.00,,,0.00,weatherlink.com 1.10,2013-06-06 03:27:00,
2013-06-05 23:42:00,57.4,49.0,30.13,NW,314,0.0,4.0,74,0.00,,,0.00,weatherlink.com 1.10,2013-06-06 03:42:00,
2013-06-05 23:57:00,56.5,49.0,30.12,SSW,200,0.0,3.0,76,0.00,,,0.00,weatherlink.com 1.10,2013-06-06 03:57:00,